createdAt,value
2018-05-04T00:01:23.673Z,37.30
2018-05-04T00:03:57.551Z,37.30
2018-05-04T00:06:31.439Z,37.30
2018-05-04T00:09:05.285Z,37.30
2018-05-04T00:11:39.152Z,37.40
2018-05-04T00:14:12.988Z,37.40
2018-05-04T00:16:46.864Z,37.40
2018-05-04T00:19:20.729Z,37.50
2018-05-04T00:21:55.463Z,37.50
2018-05-04T00:24:29.386Z,37.50
2018-05-04T00:27:04.771Z,37.70
2018-05-04T00:29:39.456Z,37.70
2018-05-04T00:32:13.520Z,37.70
2018-05-04T00:34:47.359Z,37.70
2018-05-04T00:37:22.000Z,37.70
2018-05-04T00:39:56.134Z,37.70
2018-05-04T00:42:30.111Z,37.80
2018-05-04T00:45:04.084Z,37.80
2018-05-04T00:47:38.046Z,37.80
2018-05-04T00:50:11.867Z,37.80
2018-05-04T00:52:45.813Z,37.90
2018-05-04T00:55:19.752Z,37.90
2018-05-04T00:57:54.195Z,38.00
2018-05-04T01:00:28.125Z,38.00
2018-05-04T01:03:03.033Z,38.00
2018-05-04T01:05:37.732Z,38.00
2018-05-04T01:08:11.621Z,38.00
2018-05-04T01:10:45.399Z,38.00
2018-05-04T01:13:19.377Z,38.00
2018-05-04T01:15:53.376Z,38.10
2018-05-04T01:18:27.209Z,38.10
2018-05-04T01:21:01.098Z,38.10
2018-05-04T01:23:35.761Z,37.70
2018-05-04T01:26:09.848Z,38.20
2018-05-04T01:28:43.691Z,38.30
2018-05-04T01:31:18.399Z,38.20
2018-05-04T01:33:52.389Z,38.20
2018-05-04T01:36:26.236Z,38.20
2018-05-04T01:39:00.996Z,38.30
2018-05-04T01:41:35.069Z,38.30
2018-05-04T01:44:08.960Z,38.30
2018-05-04T01:46:42.843Z,38.40
2018-05-04T01:49:16.612Z,38.30
2018-05-04T01:51:51.507Z,38.40
2018-05-04T01:54:25.620Z,38.50
2018-05-04T01:57:00.342Z,38.50
2018-05-04T01:59:34.324Z,38.50
2018-05-04T02:02:08.140Z,38.60
2018-05-04T02:04:42.120Z,38.60
2018-05-04T02:07:16.784Z,38.70
2018-05-04T02:09:50.727Z,38.70
2018-05-04T02:12:24.455Z,38.70
2018-05-04T02:14:58.220Z,38.70
2018-05-04T02:17:32.248Z,38.80
2018-05-04T02:20:06.246Z,38.70
2018-05-04T02:22:40.885Z,38.90
2018-05-04T02:25:15.010Z,38.90
2018-05-04T02:27:48.996Z,39.00
2018-05-04T02:30:22.816Z,38.90
2018-05-04T02:32:56.713Z,39.00
2018-05-04T02:35:31.339Z,39.00
2018-05-04T02:38:05.402Z,39.00
2018-05-04T02:40:39.310Z,39.10
2018-05-04T02:43:13.375Z,39.10
2018-05-04T02:45:47.413Z,39.00
2018-05-04T02:48:22.216Z,39.10
2018-05-04T02:50:56.904Z,39.10
2018-05-04T02:53:31.758Z,39.20
2018-05-04T02:56:05.528Z,39.30
2018-05-04T02:58:39.549Z,39.30
2018-05-04T03:01:14.316Z,39.40
2018-05-04T03:03:48.311Z,39.40
2018-05-04T03:06:22.116Z,39.50
2018-05-04T03:08:56.732Z,39.60
2018-05-04T03:11:30.726Z,39.60
2018-05-04T03:14:04.444Z,39.60
2018-05-04T03:16:38.372Z,39.60
2018-05-04T03:19:12.722Z,39.60
2018-05-04T03:21:46.595Z,39.50
2018-05-04T03:24:20.288Z,39.50
2018-05-04T03:26:54.109Z,39.60
2018-05-04T03:29:28.785Z,39.60
2018-05-04T03:32:02.824Z,39.60
2018-05-04T03:34:36.857Z,39.60
2018-05-04T03:37:10.892Z,39.60
2018-05-04T03:39:44.940Z,39.70
2018-05-04T03:42:18.816Z,39.70
2018-05-04T03:44:53.458Z,39.80
2018-05-04T03:47:27.451Z,39.80
2018-05-04T03:50:02.053Z,39.80
2018-05-04T03:52:36.171Z,39.80
2018-05-04T03:55:10.925Z,39.70
2018-05-04T03:57:56.834Z,39.70
2018-05-04T04:00:42.774Z,39.70
2018-05-04T04:03:29.566Z,40.40
2018-05-04T04:06:03.410Z,39.80
2018-05-04T04:08:38.223Z,39.80
2018-05-04T04:11:11.988Z,39.80
2018-05-04T04:13:45.962Z,39.80
2018-05-04T04:16:19.871Z,39.80
2018-05-04T04:18:54.500Z,39.70
2018-05-04T04:21:28.560Z,39.70
2018-05-04T04:24:02.519Z,39.70
2018-05-04T04:26:36.530Z,39.70
2018-05-04T04:29:10.491Z,39.70
2018-05-04T04:31:45.279Z,39.70
2018-05-04T04:34:19.230Z,39.70
2018-05-04T04:36:53.323Z,39.80
2018-05-04T04:39:27.150Z,39.80
2018-05-04T04:42:01.608Z,39.80
2018-05-04T04:44:35.837Z,39.80
2018-05-04T04:47:09.654Z,39.80
2018-05-04T04:49:44.305Z,39.90
2018-05-04T04:52:18.998Z,39.90
2018-05-04T04:54:53.178Z,39.90
2018-05-04T04:57:27.695Z,39.90
2018-05-04T05:00:02.179Z,39.80
2018-05-04T05:02:37.049Z,39.90
2018-05-04T05:05:11.543Z,39.80
2018-05-04T05:07:45.373Z,39.80
2018-05-04T05:10:19.771Z,39.90
2018-05-04T05:12:54.699Z,39.90
2018-05-04T05:15:28.914Z,39.90
2018-05-04T05:18:02.615Z,40.00
2018-05-04T05:20:36.423Z,40.00
2018-05-04T05:23:10.362Z,40.00
2018-05-04T05:25:45.116Z,39.80
2018-05-04T05:28:19.090Z,39.80
2018-05-04T05:30:52.963Z,39.60
2018-05-04T05:33:26.937Z,39.60
2018-05-04T05:36:01.079Z,39.60
2018-05-04T05:38:35.009Z,39.60
2018-05-04T05:41:09.788Z,39.60
2018-05-04T05:43:43.804Z,39.60
2018-05-04T05:46:17.909Z,39.60
2018-05-04T05:48:52.549Z,39.50
2018-05-04T05:51:26.844Z,39.40
2018-05-04T05:54:00.798Z,39.40
2018-05-04T05:56:35.872Z,39.30
2018-05-04T05:59:09.876Z,39.30
2018-05-04T06:01:43.954Z,39.30
2018-05-04T06:04:17.993Z,39.20
2018-05-04T06:06:52.000Z,39.20
2018-05-04T06:09:25.805Z,39.20
2018-05-04T06:12:00.481Z,39.00
2018-05-04T06:14:34.482Z,39.00
2018-05-04T06:17:08.497Z,39.00
2018-05-04T06:19:42.531Z,38.90
2018-05-04T06:22:17.413Z,38.90
2018-05-04T06:24:52.143Z,38.80
2018-05-04T06:27:26.087Z,38.70
2018-05-04T06:30:00.023Z,38.60
2018-05-04T06:32:33.932Z,38.60
2018-05-04T06:35:08.019Z,38.60
2018-05-04T06:37:41.942Z,38.50
2018-05-04T06:40:15.842Z,38.60
2018-05-04T06:42:49.809Z,38.70
2018-05-04T06:45:18.153Z,38.70
2018-05-04T06:47:46.423Z,38.80
2018-05-04T06:50:15.609Z,38.70
2018-05-04T06:52:43.800Z,38.70
2018-05-04T06:55:12.004Z,38.80
2018-05-04T06:57:40.279Z,38.70
2018-05-04T07:00:09.279Z,38.40
2018-05-04T07:02:37.621Z,38.40
2018-05-04T07:05:06.675Z,38.20
2018-05-04T07:07:35.717Z,37.90
2018-05-04T07:10:04.040Z,37.90
2018-05-04T07:12:32.231Z,37.90
2018-05-04T07:15:00.456Z,37.90
2018-05-04T07:17:28.855Z,37.80
2018-05-04T07:19:57.168Z,37.70
2018-05-04T07:22:25.385Z,37.70
2018-05-04T07:24:53.625Z,37.80
2018-05-04T07:27:22.778Z,37.60
2018-05-04T07:29:51.023Z,37.50
2018-05-04T07:32:19.329Z,37.60
2018-05-04T07:34:47.519Z,37.50
2018-05-04T07:37:15.786Z,37.50
2018-05-04T07:39:44.154Z,37.50
2018-05-04T07:42:12.324Z,37.60
2018-05-04T07:44:40.612Z,37.90
2018-05-04T07:47:08.831Z,37.90
2018-05-04T07:49:37.063Z,37.90
2018-05-04T07:52:05.325Z,38.00
2018-05-04T07:54:33.584Z,38.10
2018-05-04T07:57:01.761Z,38.20
2018-05-04T07:59:29.965Z,38.20
2018-05-04T08:01:58.209Z,38.50
2018-05-04T08:04:26.450Z,38.50
2018-05-04T08:06:54.766Z,38.60
2018-05-04T08:09:22.968Z,38.60
2018-05-04T08:11:51.715Z,38.70
2018-05-04T08:14:20.039Z,38.70
2018-05-04T08:16:48.981Z,38.80
2018-05-04T08:19:17.242Z,38.70
2018-05-04T08:21:45.517Z,38.80
2018-05-04T08:24:13.765Z,38.80
2018-05-04T08:26:42.045Z,38.90
2018-05-04T08:29:10.267Z,38.90
2018-05-04T08:31:38.550Z,39.30
2018-05-04T08:34:06.969Z,38.80
2018-05-04T08:36:35.996Z,39.00
2018-05-04T08:39:04.269Z,38.80
2018-05-04T08:41:32.475Z,39.30
2018-05-04T08:44:00.680Z,37.50
2018-05-04T08:46:29.115Z,36.00
2018-05-04T08:48:57.644Z,35.40
2018-05-04T08:51:26.796Z,33.00
2018-05-04T08:53:55.178Z,32.90
2018-05-04T08:56:23.474Z,33.20
2018-05-04T08:58:51.734Z,33.70
2018-05-04T09:01:20.023Z,33.90
2018-05-04T09:03:48.310Z,33.00
2018-05-04T09:06:17.429Z,31.30
2018-05-04T09:11:19.622Z,31.70
2018-05-04T09:13:48.250Z,30.00
2018-05-04T09:16:16.497Z,31.30
2018-05-04T09:18:44.891Z,31.20
2018-05-04T09:21:13.286Z,31.50
2018-05-04T09:23:41.724Z,31.10
2018-05-04T09:26:09.936Z,31.60
2018-05-04T09:28:38.967Z,32.80
2018-05-04T09:31:07.288Z,32.80
2018-05-04T09:33:35.461Z,33.40
2018-05-04T09:36:03.820Z,33.40
2018-05-04T09:38:32.040Z,33.40
2018-05-04T09:41:01.846Z,33.90
2018-05-04T09:43:31.004Z,34.20
2018-05-04T09:45:59.208Z,34.20
2018-05-04T09:48:28.479Z,34.20
2018-05-04T09:50:56.739Z,34.20
2018-05-04T09:53:25.117Z,34.30
2018-05-04T09:55:53.430Z,34.50
2018-05-04T09:58:22.323Z,34.60
2018-05-04T10:00:51.324Z,34.60
2018-05-04T10:03:20.416Z,34.80
2018-05-04T10:05:49.965Z,34.90
2018-05-04T10:08:34.140Z,34.80
2018-05-04T10:11:02.354Z,35.00
2018-05-04T10:13:31.393Z,35.10
2018-05-04T10:15:59.702Z,35.10
2018-05-04T10:18:28.633Z,35.30
2018-05-04T10:20:56.917Z,35.20
2018-05-04T10:23:25.103Z,35.30
2018-05-04T10:25:53.358Z,35.30
2018-05-04T10:28:21.680Z,35.40
2018-05-04T10:30:49.971Z,35.40
2018-05-04T10:33:18.276Z,35.40
2018-05-04T10:35:47.296Z,35.60
2018-05-04T10:38:15.688Z,35.60
2018-05-04T10:40:43.888Z,35.70
2018-05-04T10:43:12.875Z,35.80
2018-05-04T10:45:41.132Z,35.70
2018-05-04T10:48:09.308Z,35.70
2018-05-04T10:50:37.621Z,35.80
2018-05-04T10:53:05.848Z,35.90
2018-05-04T10:55:34.046Z,35.90
2018-05-04T10:58:02.248Z,36.00
2018-05-04T11:00:31.571Z,35.90
2018-05-04T11:03:00.645Z,36.30
2018-05-04T11:05:28.924Z,36.20
2018-05-04T11:07:57.094Z,36.10
2018-05-04T11:10:25.265Z,36.00
2018-05-04T11:12:53.498Z,35.90
2018-05-04T11:15:21.716Z,35.90
2018-05-04T11:17:49.902Z,35.90
2018-05-04T11:20:18.440Z,35.80
2018-05-04T11:22:48.036Z,35.90
2018-05-04T11:25:17.105Z,35.90
2018-05-04T11:27:45.316Z,35.80
2018-05-04T11:30:14.298Z,35.80
2018-05-04T11:32:43.277Z,35.90
2018-05-04T11:35:11.436Z,35.90
2018-05-04T11:37:39.669Z,35.90
2018-05-04T11:40:07.867Z,36.00
2018-05-04T11:42:36.094Z,36.10
2018-05-04T11:45:04.368Z,36.20
2018-05-04T11:47:33.320Z,36.30
2018-05-04T11:50:01.514Z,36.30
2018-05-04T11:52:29.791Z,36.40
2018-05-04T11:54:58.009Z,36.40
2018-05-04T11:57:26.232Z,36.70
2018-05-04T11:59:55.399Z,36.50
2018-05-04T12:02:23.638Z,35.80
2018-05-04T12:04:52.716Z,34.20
2018-05-04T12:07:21.101Z,34.20
2018-05-04T12:09:50.121Z,33.30
2018-05-04T12:12:18.559Z,33.30
2018-05-04T12:14:47.583Z,32.90
2018-05-04T12:17:15.869Z,32.80
2018-05-04T12:19:44.088Z,32.80
2018-05-04T12:22:12.311Z,32.80
2018-05-04T12:24:40.619Z,33.00
2018-05-04T12:27:08.905Z,32.30
2018-05-04T12:29:37.251Z,32.10
2018-05-04T12:32:05.623Z,31.70
2018-05-04T12:34:33.871Z,31.60
2018-05-04T12:37:02.083Z,31.60
2018-05-04T12:39:30.700Z,31.90
2018-05-04T12:41:59.703Z,32.70
2018-05-04T12:44:28.968Z,32.30
2018-05-04T12:46:57.204Z,32.30
2018-05-04T12:49:26.158Z,32.30
2018-05-04T12:51:55.218Z,31.80
2018-05-04T12:54:23.450Z,31.80
2018-05-04T12:56:52.417Z,32.30
2018-05-04T12:59:21.383Z,31.60
2018-05-04T13:01:49.718Z,31.60
2018-05-04T13:04:18.053Z,31.90
2018-05-04T13:06:46.303Z,31.80
2018-05-04T13:09:14.766Z,32.00
2018-05-04T13:11:43.024Z,31.70
2018-05-04T13:14:11.245Z,31.70
2018-05-04T13:16:39.466Z,31.80
2018-05-04T13:19:07.677Z,32.20
2018-05-04T13:21:35.942Z,31.70
2018-05-04T13:24:04.185Z,31.40
2018-05-04T13:26:33.148Z,31.20
2018-05-04T13:29:02.176Z,30.70
2018-05-04T13:31:30.439Z,30.70
2018-05-04T13:33:58.672Z,30.80
